sensor_id;sensor_type;location;lat;lon;timestamp;pressure;altitude;pressure_sealevel;temperature;humidity
32033;BME280;31720;52.638;9.216;2022-07-09T00:02:24;102441.25;;;15.82;100.00
32033;BME280;31720;52.638;9.216;2022-07-09T00:05:26;102441.16;;;15.84;100.00
32033;BME280;31720;52.638;9.216;2022-07-09T00:08:28;102446.41;;;15.85;100.00
32033;BME280;31720;52.638;9.216;2022-07-09T00:11:30;102441.25;;;15.82;100.00
32033;BME280;31720;52.638;9.216;2022-07-09T00:14:31;102445.53;;;15.85;100.00
32033;BME280;31720;52.638;9.216;2022-07-09T00:17:32;102446.47;;;15.84;100.00
32033;BME280;31720;52.638;9.216;2022-07-09T00:20:34;102432.44;;;15.82;100.00
32033;BME280;31720;52.638;9.216;2022-07-09T00:23:36;102437.78;;;15.80;100.00
32033;BME280;31720;52.638;9.216;2022-07-09T00:26:38;102431.56;;;15.81;100.00
32033;BME280;31720;52.638;9.216;2022-07-09T00:29:39;102434.28;;;15.80;100.00
32033;BME280;31720;52.638;9.216;2022-07-09T00:32:40;102428.34;;;15.75;100.00
32033;BME280;31720;52.638;9.216;2022-07-09T00:35:41;102430.00;;;15.77;100.00
32033;BME280;31720;52.638;9.216;2022-07-09T00:38:44;102432.66;;;15.77;100.00
32033;BME280;31720;52.638;9.216;2022-07-09T00:41:46;102429.44;;;15.70;100.00
32033;BME280;31720;52.638;9.216;2022-07-09T00:44:47;102430.28;;;15.71;100.00
32033;BME280;31720;52.638;9.216;2022-07-09T00:47:49;102422.41;;;15.69;100.00
32033;BME280;31720;52.638;9.216;2022-07-09T00:50:50;102430.44;;;15.68;100.00
32033;BME280;31720;52.638;9.216;2022-07-09T00:53:53;102418.06;;;15.68;100.00
32033;BME280;31720;52.638;9.216;2022-07-09T00:56:54;102419.75;;;15.69;100.00
32033;BME280;31720;52.638;9.216;2022-07-09T00:59:57;102414.47;;;15.69;100.00
32033;BME280;31720;52.638;9.216;2022-07-09T01:02:58;102406.41;;;15.71;100.00
32033;BME280;31720;52.638;9.216;2022-07-09T01:06:00;102405.50;;;15.72;100.00
32033;BME280;31720;52.638;9.216;2022-07-09T01:09:03;102402.00;;;15.71;100.00
32033;BME280;31720;52.638;9.216;2022-07-09T01:12:06;102401.13;;;15.71;100.00
32033;BME280;31720;52.638;9.216;2022-07-09T01:15:08;102390.69;;;15.68;100.00
32033;BME280;31720;52.638;9.216;2022-07-09T01:18:10;102398.78;;;15.65;100.00
32033;BME280;31720;52.638;9.216;2022-07-09T01:21:13;102391.78;;;15.62;100.00
32033;BME280;31720;52.638;9.216;2022-07-09T01:24:14;102394.03;;;15.53;100.00
32033;BME280;31720;52.638;9.216;2022-07-09T01:27:16;102386.38;;;15.46;100.00
32033;BME280;31720;52.638;9.216;2022-07-09T01:30:27;102383.09;;;15.41;100.00
32033;BME280;31720;52.638;9.216;2022-07-09T01:33:29;102378.72;;;15.40;100.00
32033;BME280;31720;52.638;9.216;2022-07-09T01:36:32;102371.56;;;15.42;100.00
32033;BME280;31720;52.638;9.216;2022-07-09T01:39:33;102375.16;;;15.41;100.00
32033;BME280;31720;52.638;9.216;2022-07-09T01:42:35;102374.34;;;15.39;100.00
32033;BME280;31720;52.638;9.216;2022-07-09T01:45:36;102378.22;;;15.32;100.00
32033;BME280;31720;52.638;9.216;2022-07-09T01:48:37;102375.88;;;15.26;100.00
32033;BME280;31720;52.638;9.216;2022-07-09T01:51:43;102363.75;;;15.20;100.00
32033;BME280;31720;52.638;9.216;2022-07-09T01:54:44;102377.38;;;15.13;100.00
32033;BME280;31720;52.638;9.216;2022-07-09T01:57:46;102366.72;;;15.14;100.00
32033;BME280;31720;52.638;9.216;2022-07-09T02:00:47;102366.72;;;15.14;100.00
32033;BME280;31720;52.638;9.216;2022-07-09T02:03:49;102363.03;;;15.17;100.00
32033;BME280;31720;52.638;9.216;2022-07-09T02:06:51;102359.47;;;15.18;100.00
32033;BME280;31720;52.638;9.216;2022-07-09T02:09:53;102354.97;;;15.20;100.00
32033;BME280;31720;52.638;9.216;2022-07-09T02:12:54;102360.25;;;15.20;100.00
32033;BME280;31720;52.638;9.216;2022-07-09T02:15:55;102353.47;;;15.14;100.00
32033;BME280;31720;52.638;9.216;2022-07-09T02:18:56;102349.16;;;15.12;100.00
32033;BME280;31720;52.638;9.216;2022-07-09T02:21:59;102345.88;;;15.07;100.00
32033;BME280;31720;52.638;9.216;2022-07-09T02:25:00;102349.53;;;15.04;100.00
32033;BME280;31720;52.638;9.216;2022-07-09T02:28:02;102344.06;;;15.07;100.00
32033;BME280;31720;52.638;9.216;2022-07-09T02:31:03;102341.38;;;15.09;100.00
32033;BME280;31720;52.638;9.216;2022-07-09T02:34:05;102342.03;;;15.14;100.00
32033;BME280;31720;52.638;9.216;2022-07-09T02:37:08;102343.72;;;15.15;100.00
32033;BME280;31720;52.638;9.216;2022-07-09T02:40:10;102340.22;;;15.14;100.00
32033;BME280;31720;52.638;9.216;2022-07-09T02:43:11;102338.50;;;15.13;100.00
32033;BME280;31720;52.638;9.216;2022-07-09T02:46:12;102340.31;;;15.13;100.00
32033;BME280;31720;52.638;9.216;2022-07-09T02:49:14;102335.28;;;15.07;100.00
32033;BME280;31720;52.638;9.216;2022-07-09T02:52:16;102336.00;;;15.10;100.00
32033;BME280;31720;52.638;9.216;2022-07-09T02:55:18;102336.63;;;15.15;100.00
32033;BME280;31720;52.638;9.216;2022-07-09T02:58:19;102334.84;;;15.16;100.00
32033;BME280;31720;52.638;9.216;2022-07-09T03:01:21;102341.00;;;15.16;100.00
32033;BME280;31720;52.638;9.216;2022-07-09T03:04:22;102337.66;;;15.13;100.00
32033;BME280;31720;52.638;9.216;2022-07-09T03:07:25;102336.13;;;15.07;100.00
32033;BME280;31720;52.638;9.216;2022-07-09T03:10:26;102333.44;;;15.09;100.00
32033;BME280;31720;52.638;9.216;2022-07-09T03:13:28;102337.00;;;15.08;100.00
32033;BME280;31720;52.638;9.216;2022-07-09T03:16:29;102327.34;;;15.07;100.00
32033;BME280;31720;52.638;9.216;2022-07-09T03:19:30;102327.34;;;15.07;100.00
32033;BME280;31720;52.638;9.216;2022-07-09T03:22:33;102331.78;;;15.06;100.00
32033;BME280;31720;52.638;9.216;2022-07-09T03:25:35;102326.63;;;15.03;100.00
32033;BME280;31720;52.638;9.216;2022-07-09T03:28:36;102333.13;;;14.96;100.00
32033;BME280;31720;52.638;9.216;2022-07-09T03:31:38;102325.28;;;14.94;100.00
32033;BME280;31720;52.638;9.216;2022-07-09T03:34:39;102321.63;;;14.97;100.00
32033;BME280;31720;52.638;9.216;2022-07-09T03:37:42;102321.63;;;14.97;100.00
32033;BME280;31720;52.638;9.216;2022-07-09T03:40:43;102318.97;;;14.97;100.00
32033;BME280;31720;52.638;9.216;2022-07-09T03:43:45;102324.25;;;14.97;100.00
32033;BME280;31720;52.638;9.216;2022-07-09T03:46:46;102322.41;;;14.99;100.00
32033;BME280;31720;52.638;9.216;2022-07-09T03:49:47;102320.00;;;14.94;100.00
32033;BME280;31720;52.638;9.216;2022-07-09T03:52:50;102320.25;;;14.88;100.00
32033;BME280;31720;52.638;9.216;2022-07-09T03:55:51;102314.22;;;14.85;100.00
32033;BME280;31720;52.638;9.216;2022-07-09T03:58:53;102308.72;;;14.89;100.00
32033;BME280;31720;52.638;9.216;2022-07-09T04:01:54;102302.31;;;14.95;100.00
32033;BME280;31720;52.638;9.216;2022-07-09T04:04:55;102293.44;;;14.96;100.00
32033;BME280;31720;52.638;9.216;2022-07-09T04:07:58;102296.00;;;14.97;100.00
32033;BME280;31720;52.638;9.216;2022-07-09T04:11:00;102296.00;;;14.97;100.00
32033;BME280;31720;52.638;9.216;2022-07-09T04:14:02;102293.13;;;15.02;100.00
32033;BME280;31720;52.638;9.216;2022-07-09T04:17:04;102295.72;;;15.04;100.00
32033;BME280;31720;52.638;9.216;2022-07-09T04:20:07;102287.78;;;15.04;100.00
32033;BME280;31720;52.638;9.216;2022-07-09T04:23:10;102298.16;;;15.08;100.00
32033;BME280;31720;52.638;9.216;2022-07-09T04:26:11;102304.44;;;15.06;100.00
32033;BME280;31720;52.638;9.216;2022-07-09T04:29:12;102297.34;;;15.06;100.00
32033;BME280;31720;52.638;9.216;2022-07-09T04:32:14;102286.84;;;15.05;100.00
32033;BME280;31720;52.638;9.216;2022-07-09T04:35:16;102298.16;;;15.08;100.00
32033;BME280;31720;52.638;9.216;2022-07-09T04:38:19;102293.41;;;15.15;100.00
32033;BME280;31720;52.638;9.216;2022-07-09T04:41:20;102290.53;;;15.19;100.00
32033;BME280;31720;52.638;9.216;2022-07-09T04:44:22;102289.38;;;15.25;100.00
32033;BME280;31720;52.638;9.216;2022-07-09T04:47:23;102297.06;;;15.31;100.00
32033;BME280;31720;52.638;9.216;2022-07-09T04:50:25;102301.97;;;15.39;100.00
32033;BME280;31720;52.638;9.216;2022-07-09T04:53:28;102301.81;;;15.42;100.00
32033;BME280;31720;52.638;9.216;2022-07-09T04:56:30;102307.75;;;15.47;100.00
32033;BME280;31720;52.638;9.216;2022-07-09T04:59:31;102302.31;;;15.50;100.00
32033;BME280;31720;52.638;9.216;2022-07-09T05:02:32;102308.47;;;15.51;100.00
32033;BME280;31720;52.638;9.216;2022-07-09T05:05:34;102312.81;;;15.52;100.00
32033;BME280;31720;52.638;9.216;2022-07-09T05:08:37;102307.44;;;15.53;100.00
32033;BME280;31720;52.638;9.216;2022-07-09T05:11:38;102304.72;;;15.55;100.00
32033;BME280;31720;52.638;9.216;2022-07-09T05:14:40;102313.44;;;15.57;100.00
32033;BME280;31720;52.638;9.216;2022-07-09T05:17:41;102307.28;;;15.56;100.00
32033;BME280;31720;52.638;9.216;2022-07-09T05:20:44;102307.06;;;15.61;100.00
32033;BME280;31720;52.638;9.216;2022-07-09T05:23:46;102296.91;;;15.70;100.00
32033;BME280;31720;52.638;9.216;2022-07-09T05:26:48;102288.81;;;15.73;100.00
32033;BME280;31720;52.638;9.216;2022-07-09T05:29:50;102289.41;;;15.79;100.00
32033;BME280;31720;52.638;9.216;2022-07-09T05:32:51;102299.78;;;15.83;100.00
32033;BME280;31720;52.638;9.216;2022-07-09T05:35:53;102295.72;;;15.93;100.00
32033;BME280;31720;52.638;9.216;2022-07-09T05:38:55;102285.97;;;15.94;100.00
32033;BME280;31720;52.638;9.216;2022-07-09T05:41:57;102292.84;;;15.98;100.00
32033;BME280;31720;52.638;9.216;2022-07-09T05:44:58;102295.59;;;15.96;100.00
32033;BME280;31720;52.638;9.216;2022-07-09T05:47:59;102298.94;;;16.00;100.00
32033;BME280;31720;52.638;9.216;2022-07-09T05:51:01;102297.16;;;16.01;100.00
32033;BME280;31720;52.638;9.216;2022-07-09T05:54:03;102297.84;;;16.04;100.00
32033;BME280;31720;52.638;9.216;2022-07-09T05:57:05;102299.09;;;16.14;100.00
32033;BME280;31720;52.638;9.216;2022-07-09T06:00:08;102297.44;;;16.12;100.00
32033;BME280;31720;52.638;9.216;2022-07-09T06:03:09;102290.34;;;16.12;100.00
32033;BME280;31720;52.638;9.216;2022-07-09T06:06:11;102301.81;;;16.13;100.00
32033;BME280;31720;52.638;9.216;2022-07-09T06:09:13;102301.75;;;16.14;100.00
32033;BME280;31720;52.638;9.216;2022-07-09T06:12:15;102302.50;;;16.16;100.00
32033;BME280;31720;52.638;9.216;2022-07-09T06:15:16;102294.41;;;16.19;100.00
32033;BME280;31720;52.638;9.216;2022-07-09T06:18:18;102295.94;;;16.23;100.00
32033;BME280;31720;52.638;9.216;2022-07-09T06:21:19;102294.72;;;16.31;100.00
32033;BME280;31720;52.638;9.216;2022-07-09T06:24:22;102285.72;;;16.33;100.00
32033;BME280;31720;52.638;9.216;2022-07-09T06:27:24;102281.19;;;16.35;100.00
32033;BME280;31720;52.638;9.216;2022-07-09T06:30:26;102289.81;;;16.39;100.00
32033;BME280;31720;52.638;9.216;2022-07-09T06:33:27;102285.91;;;16.46;100.00
32033;BME280;31720;52.638;9.216;2022-07-09T06:36:28;102277.72;;;16.51;100.00
32033;BME280;31720;52.638;9.216;2022-07-09T06:39:31;102277.13;;;16.61;100.00
32033;BME280;31720;52.638;9.216;2022-07-09T06:42:48;102274.16;;;16.67;100.00
32033;BME280;31720;52.638;9.216;2022-07-09T06:45:50;102278.03;;;16.78;100.00
32033;BME280;31720;52.638;9.216;2022-07-09T06:48:53;102275.63;;;16.73;100.00
32033;BME280;31720;52.638;9.216;2022-07-09T06:51:55;102276.34;;;16.77;100.00
32033;BME280;31720;52.638;9.216;2022-07-09T06:54:58;102279.50;;;16.83;100.00
32033;BME280;31720;52.638;9.216;2022-07-09T06:57:59;102279.50;;;16.83;100.00
32033;BME280;31720;52.638;9.216;2022-07-09T07:01:00;102283.59;;;16.89;100.00
32033;BME280;31720;52.638;9.216;2022-07-09T07:04:02;102266.50;;;16.94;100.00
32033;BME280;31720;52.638;9.216;2022-07-09T07:07:04;102273.25;;;17.00;100.00
32033;BME280;31720;52.638;9.216;2022-07-09T07:10:07;102269.50;;;17.04;100.00
32033;BME280;31720;52.638;9.216;2022-07-09T07:13:09;102264.50;;;17.14;100.00
32033;BME280;31720;52.638;9.216;2022-07-09T07:16:12;102261.69;;;17.17;100.00
32033;BME280;31720;52.638;9.216;2022-07-09T07:19:13;102264.84;;;17.23;100.00
32033;BME280;31720;52.638;9.216;2022-07-09T07:22:15;102262.28;;;17.22;100.00
32033;BME280;31720;52.638;9.216;2022-07-09T07:25:17;102263.03;;;17.24;100.00
32033;BME280;31720;52.638;9.216;2022-07-09T07:28:19;102263.72;;;17.28;100.00
32033;BME280;31720;52.638;9.216;2022-07-09T07:31:20;102267.94;;;17.32;100.00
32033;BME280;31720;52.638;9.216;2022-07-09T07:34:23;102263.19;;;17.37;100.00
32033;BME280;31720;52.638;9.216;2022-07-09T07:37:24;102268.41;;;17.38;100.00
32033;BME280;31720;52.638;9.216;2022-07-09T07:40:27;102256.34;;;17.33;100.00
32033;BME280;31720;52.638;9.216;2022-07-09T07:43:28;102273.56;;;17.25;100.00
32033;BME280;31720;52.638;9.216;2022-07-09T07:46:30;102260.66;;;17.19;100.00
32033;BME280;31720;52.638;9.216;2022-07-09T07:49:31;102261.75;;;17.15;100.00
32033;BME280;31720;52.638;9.216;2022-07-09T07:52:32;102262.53;;;17.17;100.00
32033;BME280;31720;52.638;9.216;2022-07-09T07:55:35;102270.41;;;17.19;100.00
32033;BME280;31720;52.638;9.216;2022-07-09T07:58:36;102265.97;;;17.19;100.00
32033;BME280;31720;52.638;9.216;2022-07-09T08:01:38;102265.69;;;17.24;100.00
32033;BME280;31720;52.638;9.216;2022-07-09T08:04:39;102257.28;;;17.32;100.00
32033;BME280;31720;52.638;9.216;2022-07-09T08:07:40;102249.53;;;17.43;100.00
32033;BME280;31720;52.638;9.216;2022-07-09T08:10:43;102257.19;;;17.49;100.00
32033;BME280;31720;52.638;9.216;2022-07-09T08:13:44;102263.84;;;17.56;100.00
32033;BME280;31720;52.638;9.216;2022-07-09T08:16:46;102262.53;;;17.63;100.00
32033;BME280;31720;52.638;9.216;2022-07-09T08:19:47;102252.75;;;17.64;100.00
32033;BME280;31720;52.638;9.216;2022-07-09T08:22:48;102263.22;;;17.67;100.00
32033;BME280;31720;52.638;9.216;2022-07-09T08:25:51;102262.28;;;17.68;100.00
32033;BME280;31720;52.638;9.216;2022-07-09T08:28:53;102248.88;;;17.69;100.00
32033;BME280;31720;52.638;9.216;2022-07-09T08:31:54;102253.34;;;17.69;100.00
32033;BME280;31720;52.638;9.216;2022-07-09T08:34:55;102256.00;;;17.69;100.00
32033;BME280;31720;52.638;9.216;2022-07-09T08:37:57;102255.75;;;17.73;100.00
32033;BME280;31720;52.638;9.216;2022-07-09T08:41:00;102259.00;;;17.79;100.00
32033;BME280;31720;52.638;9.216;2022-07-09T08:44:03;102245.81;;;17.91;100.00
32033;BME280;31720;52.638;9.216;2022-07-09T08:47:05;102239.78;;;18.04;100.00
32033;BME280;31720;52.638;9.216;2022-07-09T08:50:08;102239.38;;;18.10;100.00
32033;BME280;31720;52.638;9.216;2022-07-09T08:53:11;102223.53;;;18.08;100.00
32033;BME280;31720;52.638;9.216;2022-07-09T08:56:14;102222.00;;;18.04;100.00
32033;BME280;31720;52.638;9.216;2022-07-09T08:59:16;102222.91;;;18.03;100.00
32033;BME280;31720;52.638;9.216;2022-07-09T09:02:17;102228.75;;;18.10;100.00
32033;BME280;31720;52.638;9.216;2022-07-09T09:05:20;102230.84;;;18.19;100.00
32033;BME280;31720;52.638;9.216;2022-07-09T09:08:21;102225.50;;;18.33;100.00
32033;BME280;31720;52.638;9.216;2022-07-09T09:11:25;102221.63;;;18.53;100.00
32033;BME280;31720;52.638;9.216;2022-07-09T09:14:29;102229.59;;;18.53;100.00
32033;BME280;31720;52.638;9.216;2022-07-09T09:17:30;102228.94;;;18.49;100.00
32033;BME280;31720;52.638;9.216;2022-07-09T09:20:32;102229.66;;;18.66;100.00
32033;BME280;31720;52.638;9.216;2022-07-09T09:23:41;102236.03;;;18.78;100.00
32033;BME280;31720;52.638;9.216;2022-07-09T09:26:44;102232.31;;;18.94;100.00
32033;BME280;31720;52.638;9.216;2022-07-09T09:29:49;102234.31;;;18.91;97.91
32033;BME280;31720;52.638;9.216;2022-07-09T09:32:54;102221.38;;;18.85;98.56
32033;BME280;31720;52.638;9.216;2022-07-09T09:35:57;102222.53;;;18.81;96.31
32033;BME280;31720;52.638;9.216;2022-07-09T09:39:12;102228.44;;;18.86;97.56
32033;BME280;31720;52.638;9.216;2022-07-09T09:42:15;102215.72;;;18.89;97.86
32033;BME280;31720;52.638;9.216;2022-07-09T09:45:16;102220.69;;;18.95;98.75
32033;BME280;31720;52.638;9.216;2022-07-09T09:48:18;102211.59;;;19.12;97.85
32033;BME280;31720;52.638;9.216;2022-07-09T09:51:20;102215.75;;;19.16;93.90
32033;BME280;31720;52.638;9.216;2022-07-09T09:54:22;102203.03;;;19.07;91.51
32033;BME280;31720;52.638;9.216;2022-07-09T09:57:26;102209.66;;;19.14;91.72
32033;BME280;31720;52.638;9.216;2022-07-09T10:00:28;102192.94;;;19.25;92.49
32033;BME280;31720;52.638;9.216;2022-07-09T10:03:30;102197.47;;;19.37;93.38
32033;BME280;31720;52.638;9.216;2022-07-09T10:06:32;102190.78;;;19.44;92.50
32033;BME280;31720;52.638;9.216;2022-07-09T10:09:34;102201.06;;;19.63;89.03
32033;BME280;31720;52.638;9.216;2022-07-09T10:12:36;102202.47;;;19.82;89.71
32033;BME280;31720;52.638;9.216;2022-07-09T10:15:48;102180.06;;;19.97;89.34
32033;BME280;31720;52.638;9.216;2022-07-09T10:18:50;102182.41;;;20.01;88.04
32033;BME280;31720;52.638;9.216;2022-07-09T10:21:54;102182.84;;;19.95;87.50
32033;BME280;31720;52.638;9.216;2022-07-09T10:24:55;102175.59;;;19.72;86.17
32033;BME280;31720;52.638;9.216;2022-07-09T10:27:58;102171.16;;;19.58;88.13
32033;BME280;31720;52.638;9.216;2022-07-09T10:31:06;102164.03;;;19.59;88.67
32033;BME280;31720;52.638;9.216;2022-07-09T10:34:09;102154.44;;;19.69;90.85
32033;BME280;31720;52.638;9.216;2022-07-09T10:37:18;102157.72;;;19.98;87.10
32033;BME280;31720;52.638;9.216;2022-07-09T10:40:38;102159.41;;;20.12;83.43
32033;BME280;31720;52.638;9.216;2022-07-09T10:43:42;102155.88;;;20.24;80.98
32033;BME280;31720;52.638;9.216;2022-07-09T10:46:55;102153.22;;;20.24;83.16
32033;BME280;31720;52.638;9.216;2022-07-09T10:50:02;102154.91;;;20.25;84.39
32033;BME280;31720;52.638;9.216;2022-07-09T10:53:04;102138.47;;;20.31;82.14
32033;BME280;31720;52.638;9.216;2022-07-09T10:56:06;102136.41;;;20.47;80.99
32033;BME280;31720;52.638;9.216;2022-07-09T10:59:09;102127.84;;;20.55;77.35
32033;BME280;31720;52.638;9.216;2022-07-09T11:02:18;102137.13;;;20.62;77.76
32033;BME280;31720;52.638;9.216;2022-07-09T11:05:19;102124.00;;;20.59;79.43
32033;BME280;31720;52.638;9.216;2022-07-09T11:08:21;102126.31;;;20.64;77.12
32033;BME280;31720;52.638;9.216;2022-07-09T11:11:23;102121.09;;;20.86;78.38
32033;BME280;31720;52.638;9.216;2022-07-09T11:14:25;102117.91;;;20.81;74.62
32033;BME280;31720;52.638;9.216;2022-07-09T11:17:27;102117.84;;;20.70;73.71
32033;BME280;31720;52.638;9.216;2022-07-09T11:20:29;102116.94;;;20.58;74.35
32033;BME280;31720;52.638;9.216;2022-07-09T11:23:31;102111.44;;;20.48;77.69
32033;BME280;31720;52.638;9.216;2022-07-09T11:26:32;102113.84;;;20.99;77.47
32033;BME280;31720;52.638;9.216;2022-07-09T11:29:36;102106.72;;;21.58;75.13
32033;BME280;31720;52.638;9.216;2022-07-09T11:32:37;102103.94;;;22.04;69.44
32033;BME280;31720;52.638;9.216;2022-07-09T11:35:39;102097.97;;;22.23;70.82
32033;BME280;31720;52.638;9.216;2022-07-09T11:38:48;102106.09;;;22.10;68.99
32033;BME280;31720;52.638;9.216;2022-07-09T11:41:50;102095.78;;;21.61;68.45
32033;BME280;31720;52.638;9.216;2022-07-09T11:44:58;102101.97;;;21.15;71.12
32033;BME280;31720;52.638;9.216;2022-07-09T11:48:04;102113.50;;;20.80;72.84
32033;BME280;31720;52.638;9.216;2022-07-09T11:51:06;102114.63;;;20.54;77.40
32033;BME280;31720;52.638;9.216;2022-07-09T11:54:07;102130.75;;;20.39;80.05
32033;BME280;31720;52.638;9.216;2022-07-09T11:57:18;102157.78;;;19.85;87.45
32033;BME280;31720;52.638;9.216;2022-07-09T12:00:22;102165.59;;;18.69;100.00
32033;BME280;31720;52.638;9.216;2022-07-09T12:03:25;102168.88;;;17.14;100.00
32033;BME280;31720;52.638;9.216;2022-07-09T12:06:27;102158.28;;;16.66;100.00
32033;BME280;31720;52.638;9.216;2022-07-09T12:09:29;102158.97;;;16.38;100.00
32033;BME280;31720;52.638;9.216;2022-07-09T12:12:32;102153.22;;;16.30;100.00
32033;BME280;31720;52.638;9.216;2022-07-09T12:15:35;102143.22;;;16.35;100.00
32033;BME280;31720;52.638;9.216;2022-07-09T12:18:36;102141.56;;;16.48;100.00
32033;BME280;31720;52.638;9.216;2022-07-09T12:21:38;102150.94;;;16.40;100.00
32033;BME280;31720;52.638;9.216;2022-07-09T12:24:39;102142.09;;;16.23;100.00
32033;BME280;31720;52.638;9.216;2022-07-09T12:27:40;102134.31;;;16.36;100.00
32033;BME280;31720;52.638;9.216;2022-07-09T12:30:43;102125.13;;;16.58;100.00
32033;BME280;31720;52.638;9.216;2022-07-09T12:33:45;102124.59;;;16.98;100.00
32033;BME280;31720;52.638;9.216;2022-07-09T12:36:46;102121.34;;;17.09;100.00
32033;BME280;31720;52.638;9.216;2022-07-09T12:39:48;102123.66;;;17.74;100.00
32033;BME280;31720;52.638;9.216;2022-07-09T12:42:49;102123.22;;;18.37;100.00
32033;BME280;31720;52.638;9.216;2022-07-09T12:45:52;102119.44;;;18.68;100.00
32033;BME280;31720;52.638;9.216;2022-07-09T12:48:53;102114.47;;;19.16;100.00
32033;BME280;31720;52.638;9.216;2022-07-09T12:51:55;102102.38;;;19.63;100.00
32033;BME280;31720;52.638;9.216;2022-07-09T12:54:56;102090.84;;;19.75;100.00
32033;BME280;31720;52.638;9.216;2022-07-09T12:57:57;102084.13;;;20.19;100.00
32033;BME280;31720;52.638;9.216;2022-07-09T13:01:00;102085.44;;;20.50;100.00
32033;BME280;31720;52.638;9.216;2022-07-09T13:04:01;102081.28;;;20.70;100.00
32033;BME280;31720;52.638;9.216;2022-07-09T13:07:03;102113.66;;;20.55;100.00
32033;BME280;31720;52.638;9.216;2022-07-09T13:10:06;102114.75;;;19.64;100.00
32033;BME280;31720;52.638;9.216;2022-07-09T13:13:08;102115.38;;;18.21;100.00
32033;BME280;31720;52.638;9.216;2022-07-09T13:16:10;102107.94;;;17.41;100.00
32033;BME280;31720;52.638;9.216;2022-07-09T13:19:12;102113.03;;;17.44;100.00
32033;BME280;31720;52.638;9.216;2022-07-09T13:22:13;102103.31;;;17.59;100.00
32033;BME280;31720;52.638;9.216;2022-07-09T13:25:16;102102.34;;;18.31;100.00
32033;BME280;31720;52.638;9.216;2022-07-09T13:28:17;102101.66;;;18.96;100.00
32033;BME280;31720;52.638;9.216;2022-07-09T13:31:20;102102.09;;;19.15;100.00
32033;BME280;31720;52.638;9.216;2022-07-09T13:34:21;102100.41;;;19.14;100.00
32033;BME280;31720;52.638;9.216;2022-07-09T13:37:23;102103.41;;;19.22;100.00
32033;BME280;31720;52.638;9.216;2022-07-09T13:40:24;102102.94;;;19.03;100.00
32033;BME280;31720;52.638;9.216;2022-07-09T13:43:25;102095.44;;;19.35;100.00
32033;BME280;31720;52.638;9.216;2022-07-09T13:46:29;102093.47;;;19.24;100.00
32033;BME280;31720;52.638;9.216;2022-07-09T13:49:30;102096.75;;;18.90;100.00
32033;BME280;31720;52.638;9.216;2022-07-09T13:52:31;102104.44;;;19.07;100.00
32033;BME280;31720;52.638;9.216;2022-07-09T13:55:33;102107.28;;;18.91;100.00
32033;BME280;31720;52.638;9.216;2022-07-09T13:58:34;102109.16;;;18.77;100.00
32033;BME280;31720;52.638;9.216;2022-07-09T14:01:37;102113.50;;;19.05;100.00
32033;BME280;31720;52.638;9.216;2022-07-09T14:04:38;102097.22;;;19.35;100.00
32033;BME280;31720;52.638;9.216;2022-07-09T14:07:39;102089.59;;;19.68;100.00
32033;BME280;31720;52.638;9.216;2022-07-09T14:10:41;102092.00;;;19.97;100.00
32033;BME280;31720;52.638;9.216;2022-07-09T14:13:42;102087.50;;;19.97;96.94
32033;BME280;31720;52.638;9.216;2022-07-09T14:16:45;102090.28;;;19.96;91.68
32033;BME280;31720;52.638;9.216;2022-07-09T14:19:46;102088.69;;;19.93;90.82
32033;BME280;31720;52.638;9.216;2022-07-09T14:22:48;102082.56;;;20.17;89.56
32033;BME280;31720;52.638;9.216;2022-07-09T14:25:49;102084.28;;;20.05;93.46
32033;BME280;31720;52.638;9.216;2022-07-09T14:28:51;102092.00;;;20.34;100.00
32033;BME280;31720;52.638;9.216;2022-07-09T14:31:54;102088.28;;;19.87;88.88
32033;BME280;31720;52.638;9.216;2022-07-09T14:34:55;102092.31;;;19.29;89.65
32033;BME280;31720;52.638;9.216;2022-07-09T14:37:58;102093.53;;;18.97;90.65
32033;BME280;31720;52.638;9.216;2022-07-09T14:40:59;102092.56;;;18.86;93.76
32033;BME280;31720;52.638;9.216;2022-07-09T14:44:01;102092.50;;;19.00;99.46
32033;BME280;31720;52.638;9.216;2022-07-09T14:47:04;102086.00;;;19.30;93.31
32033;BME280;31720;52.638;9.216;2022-07-09T14:50:05;102095.50;;;19.34;87.23
32033;BME280;31720;52.638;9.216;2022-07-09T14:53:07;102089.38;;;19.71;92.42
32033;BME280;31720;52.638;9.216;2022-07-09T14:56:08;102104.63;;;19.69;87.01
32033;BME280;31720;52.638;9.216;2022-07-09T14:59:10;102103.09;;;19.52;81.33
32033;BME280;31720;52.638;9.216;2022-07-09T15:02:13;102104.16;;;19.50;83.95
32033;BME280;31720;52.638;9.216;2022-07-09T15:05:14;102111.50;;;19.34;79.90
32033;BME280;31720;52.638;9.216;2022-07-09T15:08:17;102116.09;;;19.57;88.50
32033;BME280;31720;52.638;9.216;2022-07-09T15:11:18;102114.56;;;19.67;76.78
32033;BME280;31720;52.638;9.216;2022-07-09T15:14:20;102131.22;;;19.18;76.61
32033;BME280;31720;52.638;9.216;2022-07-09T15:17:22;102114.69;;;19.13;81.81
32033;BME280;31720;52.638;9.216;2022-07-09T15:20:24;102117.88;;;19.06;77.14
32033;BME280;31720;52.638;9.216;2022-07-09T15:23:25;102119.97;;;19.00;77.37
32033;BME280;31720;52.638;9.216;2022-07-09T15:26:27;102109.28;;;18.88;78.63
32033;BME280;31720;52.638;9.216;2022-07-09T15:29:28;102118.16;;;19.01;82.60
32033;BME280;31720;52.638;9.216;2022-07-09T15:32:31;102110.97;;;19.29;79.87
32033;BME280;31720;52.638;9.216;2022-07-09T15:35:32;102109.91;;;19.18;78.96
32033;BME280;31720;52.638;9.216;2022-07-09T15:38:33;102117.00;;;19.05;75.54
32033;BME280;31720;52.638;9.216;2022-07-09T15:41:35;102128.31;;;19.09;76.27
32033;BME280;31720;52.638;9.216;2022-07-09T15:44:36;102134.34;;;18.98;74.08